• Join FlightAware (Why Join?)
  • Login
  • US Flag 
09:16AM EDT


 

Airport Tracker/Info


-or-


 

Live Flight TrackerFlight Track Log ✈ VH-ZPO ✈ 29-Apr-2013 ✈ YPPD / PHE - YPPH / PER

Flight Track Log - Related Links

Times and Time Zones

All times are in EDT time to prevent confusion due to time zone crossing. See the VH-ZPO flight status page for this flight to view local times or setup timezone preferences in your user account.

Time Position Orientation Groundspeed Altitude Reporting Facility
EDT Latitude Longitude Course Direction KTS MPH feet Rate Location/Type
08:44PM -21.3060 118.4544 North 37,300  Level Aus ATC (Calculated)
08:46PM -21.0101 118.5072 190° South 343 395 19,600 -5,100 Descending Aus ATC (RADAR)
08:47PM -21.1411 118.4837 190° South 353 406 22,700 2,220 Climbing Aus ATC (RADAR)
08:48PM -21.2872 118.4576 189° South 372 428 25,800 2,040 Climbing Aus ATC (RADAR)
08:49PM -21.3223 118.4512 190° South 374 430 26,400 1,740 Climbing Aus ATC (RADAR)
08:51PM -21.5126 118.4156 190° South 390 449 29,600 1,560 Climbing Aus ATC (RADAR)
08:53PM -21.8108 118.3614 190° South 421 484 33,200 1,380 Climbing Aus ATC (RADAR)
08:55PM -21.9850 118.3288 190° South 417 480 35,300 1,380 Climbing Aus ATC (RADAR)
08:55PM -22.0234 118.3221 189° South 418 481 35,800 1,380 Climbing Aus ATC (RADAR)
08:56PM -22.1919 118.2912 190° South 401 461 37,900 480 Climbing Aus ATC (RADAR)
08:59PM -22.5124 118.2319 190° South 423 487 38,100  Climbing Aus ATC (RADAR)
09:01PM -22.6855 118.1997 190° South 414 476 38,100  Level Aus ATC (RADAR)
09:01PM -22.7142 118.1943 190° South 416 479 38,100  Level Aus ATC (RADAR)
09:03PM -22.8973 118.1605 190° South 418 481 38,200  Climbing Aus ATC (RADAR)
09:05PM -23.2160 118.1017 190° South 420 483 38,200  Level Aus ATC (RADAR)
09:07PM -23.3903 118.0688 190° South 422 486 38,200  Level Aus ATC (RADAR)
09:08PM -23.5633 118.0363 190° South 416 479 38,200  Level Aus ATC (RADAR)
09:11PM -23.8972 117.9725 190° South 413 475 38,200  Level Aus ATC (RADAR)
09:13PM -24.0776 117.9383 190° South 415 478 38,200  Level Aus ATC (RADAR)
09:15PM -24.2997 117.8954 190° South 422 486 38,200  Level Aus ATC (RADAR)
09:16PM -24.4932 117.8580 190° South 425 489 38,200  Level Aus ATC (RADAR)
09:18PM -24.7083 117.8171 190° South 425 489 38,200  Level Aus ATC (RADAR)
09:20PM -24.8841 117.7837 190° South 426 490 38,200  Level Aus ATC (RADAR)
09:20PM -24.9233 117.7754 191° South 427 491 38,200  Level Aus ATC (RADAR)
09:23PM -25.2474 117.7138 190° South 431 496 38,200  Level Aus ATC (RADAR)
09:24PM -25.4457 117.6749 190° South 433 498 38,200  Level Aus ATC (RADAR)
09:26PM -25.5552 117.6534 190° South 435 501 38,200  Level Aus ATC (RADAR)
09:28PM -25.8138 117.6030 190° South 434 499 38,200  Level Aus ATC (RADAR)
09:30PM -26.0614 117.5542 190° South 433 498 38,200  Level Aus ATC (RADAR)
09:31PM -26.2389 117.5189 190° South 430 495 38,200  Level Aus ATC (RADAR)
09:31PM -26.2681 117.5131 190° South 429 494 38,200  Level Aus ATC (RADAR)
09:33PM -26.4633 117.4764 190° South 426 490 38,200  Level Aus ATC (RADAR)
09:36PM -26.7152 117.4263 190° South 422 486 38,200  Level Aus ATC (RADAR)
09:39PM -27.0064 117.3697 190° South 380 437 38,200  Level Aus ATC (RADAR)
09:40PM -27.1845 117.3354 190° South 370 426 38,200  Level Aus ATC (RADAR)
09:43PM -27.5091 117.2499 193° South 361 415 38,200  Level Aus ATC (RADAR)
09:44PM -27.6491 117.2235 189° South 361 415 38,200  Level Aus ATC (RADAR)
09:45PM -27.6741 117.2193 189° South 361 415 38,200  Level Aus ATC (RADAR)
09:47PM -27.9634 117.1608 190° South 364 419 38,200  Level Aus ATC (RADAR)
09:50PM -28.1032 117.1310 191° South 362 417 38,200  Level Aus ATC (RADAR)
09:52PM -28.4241 117.0656 190° South 355 409 38,200  Level Aus ATC (RADAR)
09:54PM -28.5927 117.0321 190° South 351 404 38,200  Level Aus ATC (RADAR)
09:55PM -28.7535 117.0012 190° South 375 432 38,200  Level Aus ATC (RADAR)
09:57PM -28.9271 116.9682 189° South 377 434 38,200  Level Aus ATC (RADAR)
09:59PM -29.0734 116.9377 190° South 376 433 38,200  Level Aus ATC (RADAR)
10:01PM -29.2816 116.8959 190° South 378 435 38,200  Level Aus ATC (RADAR)
10:03PM -29.5284 116.8437 190° South 366 421 38,200  Level Aus ATC (RADAR)
10:05PM -29.6964 116.8091 190° South 368 423 38,200  Level Aus ATC (RADAR)
10:07PM -29.9503 116.7562 190° South 370 426 38,200 -840 Level Aus ATC (RADAR)
10:09PM -30.1560 116.7136 190° South 382 440 35,300 -1,800 Descending Aus ATC (RADAR)
10:11PM -30.3508 116.6719 190° South 398 458 31,500 -2,160 Descending Aus ATC (RADAR)
10:12PM -30.5216 116.6361 190° South 423 487 28,200 -1,380 Descending Aus ATC (RADAR)
10:14PM -30.6619 116.5872 197° South 345 397 27,000 -1,740 Descending Aus ATC (RADAR)
10:16PM -30.8598 116.5110 198° South 333 383 22,000 -2,460 Descending Aus ATC (RADAR)
10:18PM -31.0043 116.4545 199° South 325 374 18,500 -2,100 Descending Aus ATC (RADAR)
10:20PM -31.1592 116.3944 198° South 313 360 14,700 -1,920 Descending Aus ATC (RADAR)
10:21PM -31.3077 116.3361 199° South 304 350 11,500 -1,620 Descending Aus ATC (RADAR)
10:23PM -31.4227 116.2894 199° South 280 322 9,500 -1,380 Descending Aus ATC (RADAR)
10:25PM -31.5306 116.2210 208° Southwest 266 306 7,100 -1,380 Descending Aus ATC (RADAR)
10:26PM -31.6404 116.1505 209° Southwest 263 303 5,000 -1,080 Descending Aus ATC (RADAR)
10:28PM -31.7405 116.0864 209° Southwest 245 282 3,700 -780 Descending Aus ATC (RADAR)
10:29PM -31.8064 116.0032 227° Southwest 200 230 2,500 -780 Descending Aus ATC (RADAR)
10:32PM -31.8955 115.9784 193° South 127 146 800 -660 Descending Aus ATC (RADAR)
10:33PM -31.9412 115.9645 194° South 86 99 100 -480 Descending Aus ATC (RADAR)